sensor_id;sensor_type;location;lat;lon;timestamp;temperature;humidity
62363;DHT22;48396;48.426;1.500;2023-06-26T00:00:53;25.50;71.40
62363;DHT22;48396;48.426;1.500;2023-06-26T00:03:18;25.40;71.50
62363;DHT22;48396;48.426;1.500;2023-06-26T00:05:44;25.20;71.70
62363;DHT22;48396;48.426;1.500;2023-06-26T00:08:10;25.20;72.10
62363;DHT22;48396;48.426;1.500;2023-06-26T00:10:35;25.10;72.00
62363;DHT22;48396;48.426;1.500;2023-06-26T00:13:01;25.00;72.10
62363;DHT22;48396;48.426;1.500;2023-06-26T00:15:27;25.00;72.10
62363;DHT22;48396;48.426;1.500;2023-06-26T00:18:11;25.00;72.00
62363;DHT22;48396;48.426;1.500;2023-06-26T00:20:37;25.00;71.80
62363;DHT22;48396;48.426;1.500;2023-06-26T00:23:02;24.90;71.70
62363;DHT22;48396;48.426;1.500;2023-06-26T00:25:33;24.90;71.90
62363;DHT22;48396;48.426;1.500;2023-06-26T00:27:58;24.80;71.70
62363;DHT22;48396;48.426;1.500;2023-06-26T00:30:24;24.90;71.90
62363;DHT22;48396;48.426;1.500;2023-06-26T00:32:50;24.90;72.00
62363;DHT22;48396;48.426;1.500;2023-06-26T00:35:16;24.80;72.20
62363;DHT22;48396;48.426;1.500;2023-06-26T00:37:42;24.70;71.80
62363;DHT22;48396;48.426;1.500;2023-06-26T00:40:08;24.70;71.60
62363;DHT22;48396;48.426;1.500;2023-06-26T00:42:34;24.70;71.00
62363;DHT22;48396;48.426;1.500;2023-06-26T00:45:00;24.60;70.60
62363;DHT22;48396;48.426;1.500;2023-06-26T00:47:26;24.50;70.40
62363;DHT22;48396;48.426;1.500;2023-06-26T00:49:52;24.40;70.40
62363;DHT22;48396;48.426;1.500;2023-06-26T00:52:19;24.40;70.50
62363;DHT22;48396;48.426;1.500;2023-06-26T00:54:45;24.40;70.20
62363;DHT22;48396;48.426;1.500;2023-06-26T00:57:11;24.40;70.00
62363;DHT22;48396;48.426;1.500;2023-06-26T00:59:37;24.30;70.10
62363;DHT22;48396;48.426;1.500;2023-06-26T01:02:03;24.40;70.10
62363;DHT22;48396;48.426;1.500;2023-06-26T01:04:29;24.40;70.10
62363;DHT22;48396;48.426;1.500;2023-06-26T01:06:58;24.30;70.10
62363;DHT22;48396;48.426;1.500;2023-06-26T01:09:25;24.30;70.20
62363;DHT22;48396;48.426;1.500;2023-06-26T01:11:51;24.30;70.10
62363;DHT22;48396;48.426;1.500;2023-06-26T01:14:16;24.20;70.10
62363;DHT22;48396;48.426;1.500;2023-06-26T01:16:43;24.10;70.10
62363;DHT22;48396;48.426;1.500;2023-06-26T01:19:23;24.00;70.10
62363;DHT22;48396;48.426;1.500;2023-06-26T01:24:45;24.00;70.20
62363;DHT22;48396;48.426;1.500;2023-06-26T01:27:13;23.90;70.10
62363;DHT22;48396;48.426;1.500;2023-06-26T01:29:40;23.80;70.20
62363;DHT22;48396;48.426;1.500;2023-06-26T01:32:07;23.80;70.20
62363;DHT22;48396;48.426;1.500;2023-06-26T01:34:33;23.80;70.00
62363;DHT22;48396;48.426;1.500;2023-06-26T01:36:59;23.70;69.90
62363;DHT22;48396;48.426;1.500;2023-06-26T01:39:24;23.70;69.80
62363;DHT22;48396;48.426;1.500;2023-06-26T01:41:50;23.50;69.60
62363;DHT22;48396;48.426;1.500;2023-06-26T01:44:28;23.50;69.80
62363;DHT22;48396;48.426;1.500;2023-06-26T01:47:02;23.50;69.90
62363;DHT22;48396;48.426;1.500;2023-06-26T01:52:14;23.40;70.00
62363;DHT22;48396;48.426;1.500;2023-06-26T01:55:08;23.30;70.30
62363;DHT22;48396;48.426;1.500;2023-06-26T01:57:36;23.20;70.50
62363;DHT22;48396;48.426;1.500;2023-06-26T02:00:03;23.20;70.70
62363;DHT22;48396;48.426;1.500;2023-06-26T02:02:29;23.20;70.70
62363;DHT22;48396;48.426;1.500;2023-06-26T02:04:55;23.20;70.80
62363;DHT22;48396;48.426;1.500;2023-06-26T02:07:20;23.10;70.90
62363;DHT22;48396;48.426;1.500;2023-06-26T02:09:46;23.10;71.10
62363;DHT22;48396;48.426;1.500;2023-06-26T02:12:12;23.00;71.10
62363;DHT22;48396;48.426;1.500;2023-06-26T02:14:37;23.00;71.40
62363;DHT22;48396;48.426;1.500;2023-06-26T02:17:03;23.00;71.40
62363;DHT22;48396;48.426;1.500;2023-06-26T02:19:29;22.90;71.40
62363;DHT22;48396;48.426;1.500;2023-06-26T02:21:54;22.90;71.40
62363;DHT22;48396;48.426;1.500;2023-06-26T02:24:20;22.90;71.50
62363;DHT22;48396;48.426;1.500;2023-06-26T02:26:46;22.90;71.50
62363;DHT22;48396;48.426;1.500;2023-06-26T02:29:12;22.80;71.60
62363;DHT22;48396;48.426;1.500;2023-06-26T02:31:37;22.70;71.80
62363;DHT22;48396;48.426;1.500;2023-06-26T02:34:04;22.60;72.20
62363;DHT22;48396;48.426;1.500;2023-06-26T02:36:29;22.50;72.30
62363;DHT22;48396;48.426;1.500;2023-06-26T02:38:55;22.50;72.50
62363;DHT22;48396;48.426;1.500;2023-06-26T02:41:21;22.60;72.40
62363;DHT22;48396;48.426;1.500;2023-06-26T02:43:46;22.60;72.40
62363;DHT22;48396;48.426;1.500;2023-06-26T02:46:12;22.60;72.50
62363;DHT22;48396;48.426;1.500;2023-06-26T02:48:37;22.60;72.20
62363;DHT22;48396;48.426;1.500;2023-06-26T02:51:03;22.60;72.40
62363;DHT22;48396;48.426;1.500;2023-06-26T02:53:28;22.70;72.40
62363;DHT22;48396;48.426;1.500;2023-06-26T02:55:54;22.70;72.30
62363;DHT22;48396;48.426;1.500;2023-06-26T02:58:19;22.70;72.30
62363;DHT22;48396;48.426;1.500;2023-06-26T03:00:45;22.60;72.60
62363;DHT22;48396;48.426;1.500;2023-06-26T03:03:12;22.60;72.70
62363;DHT22;48396;48.426;1.500;2023-06-26T03:05:38;22.50;72.70
62363;DHT22;48396;48.426;1.500;2023-06-26T03:08:04;22.50;72.70
62363;DHT22;48396;48.426;1.500;2023-06-26T03:10:29;22.50;72.90
62363;DHT22;48396;48.426;1.500;2023-06-26T03:12:55;22.60;72.90
62363;DHT22;48396;48.426;1.500;2023-06-26T03:15:20;22.50;72.90
62363;DHT22;48396;48.426;1.500;2023-06-26T03:17:46;22.60;72.80
62363;DHT22;48396;48.426;1.500;2023-06-26T03:20:11;22.60;72.80
62363;DHT22;48396;48.426;1.500;2023-06-26T03:22:37;22.60;72.90
62363;DHT22;48396;48.426;1.500;2023-06-26T03:25:03;22.50;72.90
62363;DHT22;48396;48.426;1.500;2023-06-26T03:27:30;22.50;72.90
62363;DHT22;48396;48.426;1.500;2023-06-26T03:29:55;22.40;72.90
62363;DHT22;48396;48.426;1.500;2023-06-26T03:32:21;22.30;73.10
62363;DHT22;48396;48.426;1.500;2023-06-26T03:34:47;22.30;73.50
62363;DHT22;48396;48.426;1.500;2023-06-26T03:37:12;22.30;73.50
62363;DHT22;48396;48.426;1.500;2023-06-26T03:39:38;22.30;73.50
62363;DHT22;48396;48.426;1.500;2023-06-26T03:42:04;22.30;73.40
62363;DHT22;48396;48.426;1.500;2023-06-26T03:44:30;22.30;73.50
62363;DHT22;48396;48.426;1.500;2023-06-26T03:46:55;22.30;73.40
62363;DHT22;48396;48.426;1.500;2023-06-26T03:49:21;22.30;73.30
62363;DHT22;48396;48.426;1.500;2023-06-26T03:51:46;22.30;73.40
62363;DHT22;48396;48.426;1.500;2023-06-26T03:54:12;22.30;73.50
62363;DHT22;48396;48.426;1.500;2023-06-26T03:56:38;22.40;73.30
62363;DHT22;48396;48.426;1.500;2023-06-26T03:59:03;22.40;73.90
62363;DHT22;48396;48.426;1.500;2023-06-26T04:01:29;22.40;73.10
62363;DHT22;48396;48.426;1.500;2023-06-26T04:03:55;22.20;73.20
62363;DHT22;48396;48.426;1.500;2023-06-26T04:06:20;22.20;73.40
62363;DHT22;48396;48.426;1.500;2023-06-26T04:08:46;22.20;73.40
62363;DHT22;48396;48.426;1.500;2023-06-26T04:11:11;22.20;73.60
62363;DHT22;48396;48.426;1.500;2023-06-26T04:13:37;22.00;74.10
62363;DHT22;48396;48.426;1.500;2023-06-26T04:16:02;21.70;75.10
62363;DHT22;48396;48.426;1.500;2023-06-26T04:18:29;21.50;75.40
62363;DHT22;48396;48.426;1.500;2023-06-26T04:21:24;21.40;76.30
62363;DHT22;48396;48.426;1.500;2023-06-26T04:23:50;20.80;78.20
62363;DHT22;48396;48.426;1.500;2023-06-26T04:26:16;20.40;79.40
62363;DHT22;48396;48.426;1.500;2023-06-26T04:28:42;20.30;80.40
62363;DHT22;48396;48.426;1.500;2023-06-26T04:31:08;20.30;81.30
62363;DHT22;48396;48.426;1.500;2023-06-26T04:33:35;20.20;81.60
62363;DHT22;48396;48.426;1.500;2023-06-26T04:36:06;20.40;81.30
62363;DHT22;48396;48.426;1.500;2023-06-26T04:38:32;20.50;80.50
62363;DHT22;48396;48.426;1.500;2023-06-26T04:40:59;20.60;80.00
62363;DHT22;48396;48.426;1.500;2023-06-26T04:43:24;20.60;80.10
62363;DHT22;48396;48.426;1.500;2023-06-26T04:45:50;20.70;79.90
62363;DHT22;48396;48.426;1.500;2023-06-26T04:48:16;20.70;79.80
62363;DHT22;48396;48.426;1.500;2023-06-26T04:50:41;20.70;79.80
62363;DHT22;48396;48.426;1.500;2023-06-26T04:53:07;20.70;80.10
62363;DHT22;48396;48.426;1.500;2023-06-26T04:55:33;20.70;80.10
62363;DHT22;48396;48.426;1.500;2023-06-26T04:57:59;20.80;80.10
62363;DHT22;48396;48.426;1.500;2023-06-26T05:00:25;20.80;80.00
62363;DHT22;48396;48.426;1.500;2023-06-26T05:02:51;20.80;80.10
62363;DHT22;48396;48.426;1.500;2023-06-26T05:05:28;20.80;80.00
62363;DHT22;48396;48.426;1.500;2023-06-26T05:07:55;20.90;80.30
62363;DHT22;48396;48.426;1.500;2023-06-26T05:10:21;20.80;80.50
62363;DHT22;48396;48.426;1.500;2023-06-26T05:12:47;20.70;80.60
62363;DHT22;48396;48.426;1.500;2023-06-26T05:15:13;20.80;80.90
62363;DHT22;48396;48.426;1.500;2023-06-26T05:17:38;20.60;80.70
62363;DHT22;48396;48.426;1.500;2023-06-26T05:20:04;20.50;81.50
62363;DHT22;48396;48.426;1.500;2023-06-26T05:22:32;20.30;83.50
62363;DHT22;48396;48.426;1.500;2023-06-26T05:24:59;19.90;85.60
62363;DHT22;48396;48.426;1.500;2023-06-26T05:27:26;19.40;88.40
62363;DHT22;48396;48.426;1.500;2023-06-26T05:29:52;19.30;88.90
62363;DHT22;48396;48.426;1.500;2023-06-26T05:32:18;19.30;89.50
62363;DHT22;48396;48.426;1.500;2023-06-26T05:34:47;19.40;89.60
62363;DHT22;48396;48.426;1.500;2023-06-26T05:37:20;19.10;90.20
62363;DHT22;48396;48.426;1.500;2023-06-26T05:39:46;19.00;90.90
62363;DHT22;48396;48.426;1.500;2023-06-26T05:42:12;19.20;90.70
62363;DHT22;48396;48.426;1.500;2023-06-26T05:44:38;19.30;90.80
62363;DHT22;48396;48.426;1.500;2023-06-26T05:47:04;19.40;90.70
62363;DHT22;48396;48.426;1.500;2023-06-26T05:49:29;19.10;91.00
62363;DHT22;48396;48.426;1.500;2023-06-26T05:51:55;18.90;91.30
62363;DHT22;48396;48.426;1.500;2023-06-26T05:54:22;19.00;91.60
62363;DHT22;48396;48.426;1.500;2023-06-26T05:56:48;19.20;91.50
62363;DHT22;48396;48.426;1.500;2023-06-26T05:59:15;19.00;91.70
62363;DHT22;48396;48.426;1.500;2023-06-26T06:01:42;19.20;91.70
62363;DHT22;48396;48.426;1.500;2023-06-26T06:04:07;19.20;91.80
62363;DHT22;48396;48.426;1.500;2023-06-26T06:06:33;19.20;91.90
62363;DHT22;48396;48.426;1.500;2023-06-26T06:08:58;19.40;91.80
62363;DHT22;48396;48.426;1.500;2023-06-26T06:11:24;19.30;91.40
62363;DHT22;48396;48.426;1.500;2023-06-26T06:13:49;19.00;92.10
62363;DHT22;48396;48.426;1.500;2023-06-26T06:16:15;19.10;92.40
62363;DHT22;48396;48.426;1.500;2023-06-26T06:18:41;19.50;92.00
62363;DHT22;48396;48.426;1.500;2023-06-26T06:21:06;19.90;91.40
62363;DHT22;48396;48.426;1.500;2023-06-26T06:23:32;20.20;90.90
62363;DHT22;48396;48.426;1.500;2023-06-26T06:25:57;20.40;90.50
62363;DHT22;48396;48.426;1.500;2023-06-26T06:28:23;20.60;89.90
62363;DHT22;48396;48.426;1.500;2023-06-26T06:30:48;20.70;89.60
62363;DHT22;48396;48.426;1.500;2023-06-26T06:33:14;20.80;89.00
62363;DHT22;48396;48.426;1.500;2023-06-26T06:35:40;20.80;89.00
62363;DHT22;48396;48.426;1.500;2023-06-26T06:38:05;20.90;88.80
62363;DHT22;48396;48.426;1.500;2023-06-26T06:40:31;21.10;88.30
62363;DHT22;48396;48.426;1.500;2023-06-26T06:42:56;21.20;88.00
62363;DHT22;48396;48.426;1.500;2023-06-26T06:45:22;21.20;87.30
62363;DHT22;48396;48.426;1.500;2023-06-26T06:47:47;21.30;86.90
62363;DHT22;48396;48.426;1.500;2023-06-26T06:50:13;21.40;86.40
62363;DHT22;48396;48.426;1.500;2023-06-26T06:52:42;21.40;85.80
62363;DHT22;48396;48.426;1.500;2023-06-26T06:55:08;21.40;84.90
62363;DHT22;48396;48.426;1.500;2023-06-26T06:57:39;21.40;83.80
62363;DHT22;48396;48.426;1.500;2023-06-26T07:00:09;21.30;84.00
62363;DHT22;48396;48.426;1.500;2023-06-26T07:02:40;21.20;84.20
62363;DHT22;48396;48.426;1.500;2023-06-26T07:05:06;21.20;83.80
62363;DHT22;48396;48.426;1.500;2023-06-26T07:07:33;21.20;84.00
62363;DHT22;48396;48.426;1.500;2023-06-26T07:10:13;21.40;83.90
62363;DHT22;48396;48.426;1.500;2023-06-26T07:12:38;21.50;83.30
62363;DHT22;48396;48.426;1.500;2023-06-26T07:15:05;21.60;82.90
62363;DHT22;48396;48.426;1.500;2023-06-26T07:17:32;21.70;82.50
62363;DHT22;48396;48.426;1.500;2023-06-26T07:19:58;21.80;82.50
62363;DHT22;48396;48.426;1.500;2023-06-26T07:22:24;21.80;80.80
62363;DHT22;48396;48.426;1.500;2023-06-26T07:24:50;21.80;81.30
62363;DHT22;48396;48.426;1.500;2023-06-26T07:27:15;21.90;81.40
62363;DHT22;48396;48.426;1.500;2023-06-26T07:29:42;22.00;80.20
62363;DHT22;48396;48.426;1.500;2023-06-26T07:32:07;22.00;79.90
62363;DHT22;48396;48.426;1.500;2023-06-26T07:34:33;22.00;79.50
62363;DHT22;48396;48.426;1.500;2023-06-26T07:36:59;22.00;79.20
62363;DHT22;48396;48.426;1.500;2023-06-26T07:39:24;22.10;78.70
62363;DHT22;48396;48.426;1.500;2023-06-26T07:41:50;22.10;78.30
62363;DHT22;48396;48.426;1.500;2023-06-26T07:44:16;22.20;78.50
62363;DHT22;48396;48.426;1.500;2023-06-26T07:46:41;22.30;78.10
62363;DHT22;48396;48.426;1.500;2023-06-26T07:49:07;22.30;77.60
62363;DHT22;48396;48.426;1.500;2023-06-26T07:51:32;22.40;77.20
62363;DHT22;48396;48.426;1.500;2023-06-26T07:53:58;22.40;76.20
62363;DHT22;48396;48.426;1.500;2023-06-26T07:56:23;22.40;76.40
62363;DHT22;48396;48.426;1.500;2023-06-26T07:58:49;22.40;76.40
62363;DHT22;48396;48.426;1.500;2023-06-26T08:01:15;22.40;76.00
62363;DHT22;48396;48.426;1.500;2023-06-26T08:03:40;22.50;75.30
62363;DHT22;48396;48.426;1.500;2023-06-26T08:06:06;22.60;75.20
62363;DHT22;48396;48.426;1.500;2023-06-26T08:08:32;22.70;74.00
62363;DHT22;48396;48.426;1.500;2023-06-26T08:10:57;22.70;74.20
62363;DHT22;48396;48.426;1.500;2023-06-26T08:13:23;22.80;74.20
62363;DHT22;48396;48.426;1.500;2023-06-26T08:15:49;22.90;74.10
62363;DHT22;48396;48.426;1.500;2023-06-26T08:18:14;23.00;73.00
62363;DHT22;48396;48.426;1.500;2023-06-26T08:20:40;23.00;72.00
62363;DHT22;48396;48.426;1.500;2023-06-26T08:23:05;23.00;71.90
62363;DHT22;48396;48.426;1.500;2023-06-26T08:25:32;23.00;72.10
62363;DHT22;48396;48.426;1.500;2023-06-26T08:27:57;23.10;71.30
62363;DHT22;48396;48.426;1.500;2023-06-26T08:30:23;23.00;70.80
62363;DHT22;48396;48.426;1.500;2023-06-26T08:32:56;23.10;70.90
62363;DHT22;48396;48.426;1.500;2023-06-26T08:35:21;23.10;71.30
62363;DHT22;48396;48.426;1.500;2023-06-26T08:37:47;23.20;71.10
62363;DHT22;48396;48.426;1.500;2023-06-26T08:40:16;23.30;70.30
62363;DHT22;48396;48.426;1.500;2023-06-26T08:42:42;23.30;70.10
62363;DHT22;48396;48.426;1.500;2023-06-26T08:45:08;23.30;70.00
62363;DHT22;48396;48.426;1.500;2023-06-26T08:47:35;23.50;70.30
62363;DHT22;48396;48.426;1.500;2023-06-26T08:50:07;23.60;69.60
62363;DHT22;48396;48.426;1.500;2023-06-26T08:52:40;23.70;67.40
62363;DHT22;48396;48.426;1.500;2023-06-26T08:55:09;23.50;69.80
62363;DHT22;48396;48.426;1.500;2023-06-26T08:57:36;23.70;71.10
62363;DHT22;48396;48.426;1.500;2023-06-26T09:00:03;23.80;69.60
62363;DHT22;48396;48.426;1.500;2023-06-26T09:02:29;23.80;67.50
62363;DHT22;48396;48.426;1.500;2023-06-26T09:04:55;23.70;67.20
62363;DHT22;48396;48.426;1.500;2023-06-26T09:07:21;24.00;68.50
62363;DHT22;48396;48.426;1.500;2023-06-26T09:09:46;24.10;66.90
62363;DHT22;48396;48.426;1.500;2023-06-26T09:12:13;24.10;66.50
62363;DHT22;48396;48.426;1.500;2023-06-26T09:14:39;24.10;65.90
62363;DHT22;48396;48.426;1.500;2023-06-26T09:17:05;24.10;66.60
62363;DHT22;48396;48.426;1.500;2023-06-26T09:19:30;24.20;66.40
62363;DHT22;48396;48.426;1.500;2023-06-26T09:21:56;24.20;65.60
62363;DHT22;48396;48.426;1.500;2023-06-26T09:24:22;24.20;65.50
62363;DHT22;48396;48.426;1.500;2023-06-26T09:26:49;24.20;64.80
62363;DHT22;48396;48.426;1.500;2023-06-26T09:29:15;24.40;65.20
62363;DHT22;48396;48.426;1.500;2023-06-26T09:31:43;24.60;64.00
62363;DHT22;48396;48.426;1.500;2023-06-26T09:34:09;24.60;63.80
62363;DHT22;48396;48.426;1.500;2023-06-26T09:36:37;24.70;64.10
62363;DHT22;48396;48.426;1.500;2023-06-26T09:39:04;24.70;62.90
62363;DHT22;48396;48.426;1.500;2023-06-26T09:41:30;24.50;61.40
62363;DHT22;48396;48.426;1.500;2023-06-26T09:44:00;24.30;62.80
62363;DHT22;48396;48.426;1.500;2023-06-26T09:46:27;24.30;63.50
62363;DHT22;48396;48.426;1.500;2023-06-26T09:49:04;24.40;62.10
62363;DHT22;48396;48.426;1.500;2023-06-26T09:51:33;24.50;61.90
62363;DHT22;48396;48.426;1.500;2023-06-26T09:54:00;24.20;61.70
62363;DHT22;48396;48.426;1.500;2023-06-26T09:56:27;24.10;61.70
62363;DHT22;48396;48.426;1.500;2023-06-26T09:58:56;24.00;62.10
62363;DHT22;48396;48.426;1.500;2023-06-26T10:01:23;23.90;63.00
62363;DHT22;48396;48.426;1.500;2023-06-26T10:03:49;23.80;63.00
62363;DHT22;48396;48.426;1.500;2023-06-26T10:06:15;23.70;63.30
62363;DHT22;48396;48.426;1.500;2023-06-26T10:08:44;23.70;63.60
62363;DHT22;48396;48.426;1.500;2023-06-26T10:11:13;23.60;63.60
62363;DHT22;48396;48.426;1.500;2023-06-26T10:13:43;23.70;61.90
62363;DHT22;48396;48.426;1.500;2023-06-26T10:16:12;23.50;62.40
62363;DHT22;48396;48.426;1.500;2023-06-26T10:18:39;23.60;62.30
62363;DHT22;48396;48.426;1.500;2023-06-26T10:21:06;23.40;62.30
62363;DHT22;48396;48.426;1.500;2023-06-26T10:23:35;23.40;62.70
62363;DHT22;48396;48.426;1.500;2023-06-26T10:26:02;23.30;62.80
62363;DHT22;48396;48.426;1.500;2023-06-26T10:28:32;23.40;61.90
62363;DHT22;48396;48.426;1.500;2023-06-26T10:31:01;23.60;61.10
62363;DHT22;48396;48.426;1.500;2023-06-26T10:33:28;23.60;60.50
62363;DHT22;48396;48.426;1.500;2023-06-26T10:36:13;23.50;60.20
62363;DHT22;48396;48.426;1.500;2023-06-26T10:38:49;23.40;61.20
62363;DHT22;48396;48.426;1.500;2023-06-26T10:41:19;23.50;62.00
62363;DHT22;48396;48.426;1.500;2023-06-26T10:44:05;23.50;61.60
62363;DHT22;48396;48.426;1.500;2023-06-26T10:49:14;23.50;61.20
62363;DHT22;48396;48.426;1.500;2023-06-26T10:54:31;23.50;60.80
62363;DHT22;48396;48.426;1.500;2023-06-26T10:56:57;23.70;59.30
62363;DHT22;48396;48.426;1.500;2023-06-26T10:59:25;23.80;59.60
62363;DHT22;48396;48.426;1.500;2023-06-26T11:07:19;24.10;59.40
62363;DHT22;48396;48.426;1.500;2023-06-26T11:15:12;24.30;58.90
62363;DHT22;48396;48.426;1.500;2023-06-26T11:17:39;24.40;59.10
62363;DHT22;48396;48.426;1.500;2023-06-26T11:20:13;24.60;58.30
62363;DHT22;48396;48.426;1.500;2023-06-26T11:22:40;24.70;57.20
62363;DHT22;48396;48.426;1.500;2023-06-26T11:25:07;24.60;56.70
62363;DHT22;48396;48.426;1.500;2023-06-26T11:27:43;24.60;56.40
62363;DHT22;48396;48.426;1.500;2023-06-26T11:30:10;24.50;56.10
62363;DHT22;48396;48.426;1.500;2023-06-26T11:32:39;24.70;55.90
62363;DHT22;48396;48.426;1.500;2023-06-26T11:35:05;24.80;55.90
62363;DHT22;48396;48.426;1.500;2023-06-26T11:37:34;24.60;55.50
62363;DHT22;48396;48.426;1.500;2023-06-26T11:40:15;24.60;55.80
62363;DHT22;48396;48.426;1.500;2023-06-26T11:42:41;24.70;55.60
62363;DHT22;48396;48.426;1.500;2023-06-26T11:45:07;24.60;54.60
62363;DHT22;48396;48.426;1.500;2023-06-26T11:47:32;24.50;54.80
62363;DHT22;48396;48.426;1.500;2023-06-26T11:49:58;24.50;54.10
62363;DHT22;48396;48.426;1.500;2023-06-26T11:52:24;24.40;55.10
62363;DHT22;48396;48.426;1.500;2023-06-26T11:54:49;24.60;55.10
62363;DHT22;48396;48.426;1.500;2023-06-26T11:57:15;24.70;54.30
62363;DHT22;48396;48.426;1.500;2023-06-26T11:59:41;24.70;54.90
62363;DHT22;48396;48.426;1.500;2023-06-26T12:02:08;24.80;53.70
62363;DHT22;48396;48.426;1.500;2023-06-26T12:04:40;24.90;53.50
62363;DHT22;48396;48.426;1.500;2023-06-26T12:07:07;24.80;53.70
62363;DHT22;48396;48.426;1.500;2023-06-26T12:09:41;24.90;54.10
62363;DHT22;48396;48.426;1.500;2023-06-26T12:12:08;24.90;54.30
62363;DHT22;48396;48.426;1.500;2023-06-26T12:14:34;24.90;55.00
62363;DHT22;48396;48.426;1.500;2023-06-26T12:17:09;24.90;54.60
62363;DHT22;48396;48.426;1.500;2023-06-26T12:19:37;24.90;53.90
62363;DHT22;48396;48.426;1.500;2023-06-26T12:22:07;24.90;54.30
62363;DHT22;48396;48.426;1.500;2023-06-26T12:24:36;24.90;53.70
62363;DHT22;48396;48.426;1.500;2023-06-26T12:27:06;25.00;54.10
62363;DHT22;48396;48.426;1.500;2023-06-26T12:29:33;25.10;53.60
62363;DHT22;48396;48.426;1.500;2023-06-26T12:31:59;25.40;53.30
62363;DHT22;48396;48.426;1.500;2023-06-26T12:34:35;25.30;53.60
62363;DHT22;48396;48.426;1.500;2023-06-26T12:37:04;25.40;52.60
62363;DHT22;48396;48.426;1.500;2023-06-26T12:39:29;25.50;52.70
62363;DHT22;48396;48.426;1.500;2023-06-26T12:42:14;25.50;52.90
62363;DHT22;48396;48.426;1.500;2023-06-26T12:44:40;25.40;52.70
62363;DHT22;48396;48.426;1.500;2023-06-26T12:47:05;25.60;52.70
62363;DHT22;48396;48.426;1.500;2023-06-26T12:49:40;25.50;52.40
62363;DHT22;48396;48.426;1.500;2023-06-26T12:52:09;25.40;52.20
62363;DHT22;48396;48.426;1.500;2023-06-26T12:54:36;25.40;52.90
62363;DHT22;48396;48.426;1.500;2023-06-26T12:57:02;25.60;51.80
62363;DHT22;48396;48.426;1.500;2023-06-26T12:59:30;25.60;52.10
62363;DHT22;48396;48.426;1.500;2023-06-26T13:01:56;25.60;51.90
62363;DHT22;48396;48.426;1.500;2023-06-26T13:04:22;25.60;51.50
62363;DHT22;48396;48.426;1.500;2023-06-26T13:07:07;25.60;51.60
62363;DHT22;48396;48.426;1.500;2023-06-26T13:09:33;25.90;52.10
62363;DHT22;48396;48.426;1.500;2023-06-26T13:12:00;26.20;52.50
62363;DHT22;48396;48.426;1.500;2023-06-26T13:14:25;26.60;52.00
62363;DHT22;48396;48.426;1.500;2023-06-26T13:16:51;26.60;51.40
62363;DHT22;48396;48.426;1.500;2023-06-26T13:19:17;26.30;51.40
62363;DHT22;48396;48.426;1.500;2023-06-26T13:21:43;26.10;52.40
62363;DHT22;48396;48.426;1.500;2023-06-26T13:24:09;26.00;52.30
62363;DHT22;48396;48.426;1.500;2023-06-26T13:26:34;26.00;52.60
62363;DHT22;48396;48.426;1.500;2023-06-26T13:29:00;26.00;52.20
62363;DHT22;48396;48.426;1.500;2023-06-26T13:31:26;25.90;52.30
62363;DHT22;48396;48.426;1.500;2023-06-26T13:33:52;26.10;51.70
62363;DHT22;48396;48.426;1.500;2023-06-26T13:36:18;26.10;50.70
62363;DHT22;48396;48.426;1.500;2023-06-26T13:38:44;26.00;50.80
62363;DHT22;48396;48.426;1.500;2023-06-26T13:41:10;26.10;51.00
62363;DHT22;48396;48.426;1.500;2023-06-26T13:43:36;26.30;50.90
62363;DHT22;48396;48.426;1.500;2023-06-26T13:46:02;26.30;50.70
62363;DHT22;48396;48.426;1.500;2023-06-26T13:48:29;26.50;51.60
62363;DHT22;48396;48.426;1.500;2023-06-26T13:50:54;26.80;51.60
62363;DHT22;48396;48.426;1.500;2023-06-26T13:53:22;27.00;51.70
62363;DHT22;48396;48.426;1.500;2023-06-26T13:55:47;27.20;51.20
62363;DHT22;48396;48.426;1.500;2023-06-26T13:58:13;27.20;50.80
62363;DHT22;48396;48.426;1.500;2023-06-26T14:00:40;27.20;51.10
62363;DHT22;48396;48.426;1.500;2023-06-26T14:03:06;27.30;51.20
62363;DHT22;48396;48.426;1.500;2023-06-26T14:05:33;27.50;51.80
62363;DHT22;48396;48.426;1.500;2023-06-26T14:07:59;27.70;51.40
62363;DHT22;48396;48.426;1.500;2023-06-26T14:10:25;27.90;51.10
62363;DHT22;48396;48.426;1.500;2023-06-26T14:12:50;27.90;50.90
62363;DHT22;48396;48.426;1.500;2023-06-26T14:15:16;28.00;50.50
62363;DHT22;48396;48.426;1.500;2023-06-26T14:17:42;27.90;50.00
62363;DHT22;48396;48.426;1.500;2023-06-26T14:20:09;27.70;48.20
62363;DHT22;48396;48.426;1.500;2023-06-26T14:22:38;27.40;48.40
62363;DHT22;48396;48.426;1.500;2023-06-26T14:25:04;27.30;48.70
62363;DHT22;48396;48.426;1.500;2023-06-26T14:27:30;27.40;48.30
62363;DHT22;48396;48.426;1.500;2023-06-26T14:29:55;27.50;48.60
62363;DHT22;48396;48.426;1.500;2023-06-26T14:32:21;27.70;49.10
62363;DHT22;48396;48.426;1.500;2023-06-26T14:34:46;27.90;47.70
62363;DHT22;48396;48.426;1.500;2023-06-26T14:37:12;27.80;47.30
62363;DHT22;48396;48.426;1.500;2023-06-26T14:39:37;27.60;48.10
62363;DHT22;48396;48.426;1.500;2023-06-26T14:42:04;27.70;48.20
62363;DHT22;48396;48.426;1.500;2023-06-26T14:44:30;27.80;48.40
62363;DHT22;48396;48.426;1.500;2023-06-26T14:46:55;27.90;48.70
62363;DHT22;48396;48.426;1.500;2023-06-26T14:49:21;27.80;48.50
62363;DHT22;48396;48.426;1.500;2023-06-26T14:51:47;27.90;48.40
62363;DHT22;48396;48.426;1.500;2023-06-26T14:54:13;27.70;47.90
62363;DHT22;48396;48.426;1.500;2023-06-26T14:56:39;27.40;48.40
62363;DHT22;48396;48.426;1.500;2023-06-26T14:59:04;27.40;49.10
62363;DHT22;48396;48.426;1.500;2023-06-26T15:01:33;27.30;49.10
62363;DHT22;48396;48.426;1.500;2023-06-26T15:03:58;27.20;48.40
62363;DHT22;48396;48.426;1.500;2023-06-26T15:06:24;27.20;48.90
62363;DHT22;48396;48.426;1.500;2023-06-26T15:08:49;27.30;49.00
62363;DHT22;48396;48.426;1.500;2023-06-26T15:11:15;27.40;48.90
62363;DHT22;48396;48.426;1.500;2023-06-26T15:13:40;27.60;48.50
62363;DHT22;48396;48.426;1.500;2023-06-26T15:16:06;27.80;48.30
62363;DHT22;48396;48.426;1.500;2023-06-26T15:18:32;28.00;48.00
62363;DHT22;48396;48.426;1.500;2023-06-26T15:20:57;28.10;47.70
62363;DHT22;48396;48.426;1.500;2023-06-26T15:23:23;28.20;47.80
62363;DHT22;48396;48.426;1.500;2023-06-26T15:25:48;28.30;47.60
62363;DHT22;48396;48.426;1.500;2023-06-26T15:28:14;28.30;47.60
62363;DHT22;48396;48.426;1.500;2023-06-26T15:30:39;28.20;46.70
62363;DHT22;48396;48.426;1.500;2023-06-26T15:33:05;28.20;47.00
62363;DHT22;48396;48.426;1.500;2023-06-26T15:35:31;28.20;46.30
62363;DHT22;48396;48.426;1.500;2023-06-26T15:37:57;28.20;46.60
62363;DHT22;48396;48.426;1.500;2023-06-26T15:40:22;28.30;46.60
62363;DHT22;48396;48.426;1.500;2023-06-26T15:42:50;28.40;47.10
62363;DHT22;48396;48.426;1.500;2023-06-26T15:45:16;28.60;47.10
62363;DHT22;48396;48.426;1.500;2023-06-26T15:47:48;28.70;46.60
62363;DHT22;48396;48.426;1.500;2023-06-26T15:50:14;28.60;46.50